Terminal Aerodrome Forecast
Issued by NWS Tampa Bay Area, FL

Current Version | Previous Version | Text Only | Print | Product List | Glossary On
Versions: 1 2 3 4 5 6 7 8 9 10 11 12 13 14
000
FTUS42 KTBW 211100
TAFSRQ
TAF
KSRQ 211121Z 2112/2212 VRB04KT P6SM BKN080
     FM211400 15008KT P6SM SCT030 BKN070 BKN200
     FM211900 18008KT P6SM BKN060 BKN200
     FM220200 15007KT P6SM VCSH BKN050 BKN100
     FM220800 15007KT P6SM VCSH BKN030 BKN080=

USA.gov is the U.S. government's official web portal to all federal, state and local government web resources and services.